Time;durP1;ratioP1;P1;durP2;ratioP2;P2;SDS_P1;SDS_P2;PMS_P1;PMS_P2;Temp;Humidity;BMP_temperature;BMP_pressure;BME280_temperature;BME280_humidity;BME280_pressure;Samples;Min_cycle;Max_cycle;Signal;HPM_P1;HPM_P2
2023/06/11 00:00:37;;;;;;;;;;;;;;;;;;5045455;28;19924;-72
2023/06/11 00:03:04;;;;;;;;;;;;;;;;;;5044421;28;19937;-72
2023/06/11 00:05:31;;;;;;;;;;;;;;;;;;5042833;28;20392;-72
2023/06/11 00:08:00;;;;;;;;;;;;;;;;;;5045300;28;19974;-73
2023/06/11 00:10:27;;;;;;;;;;;;;;;;;;5043474;28;19975;-73
2023/06/11 00:12:55;;;;;;;;;;;;;;;;;;5040970;28;20308;-73
2023/06/11 00:15:21;;;;;;;;;;;;;;;;;;5044634;28;19971;-73
2023/06/11 00:17:48;;;;;;;;;;;;;;;;;;5036015;28;19925;-72
2023/06/11 00:20:16;;;;;;;;;;;;;;;;;;5050927;28;19960;-74
2023/06/11 00:22:44;;;;;;;;;;;;;;;;;;5043275;28;19925;-72
2023/06/11 00:25:12;;;;;;;;;;;;;;;;;;5040801;28;19929;-72
2023/06/11 00:27:39;;;;;;;;;;;;;;;;;;5040414;28;19925;-72
2023/06/11 00:30:06;;;;;;;;;;;;;;;;;;5049615;28;20015;-73
2023/06/11 00:32:33;;;;;;;;;;;;;;;;;;5041770;28;19979;-72
2023/06/11 00:35:01;;;;;;;;;;;;;;;;;;5036683;28;19965;-73
2023/06/11 00:37:30;;;;;;;;;;;;;;;;;;5037569;28;19932;-72
2023/06/11 00:39:57;;;;;;;;;;;;;;;;;;5052123;28;19925;-72
2023/06/11 00:42:24;;;;;;;;;;;;;;;;;;5051615;28;20032;-73
2023/06/11 00:44:51;;;;;;;;;;;;;;;;;;5046105;28;19925;-73
2023/06/11 00:47:18;;;;;;;;;;;;;;;;;;5040006;28;19976;-73
2023/06/11 00:49:45;;;;;;;;;;;;;;;;;;5036494;28;19926;-73
2023/06/11 00:52:13;;;;;;;;;;;;;;;;;;5035351;28;19925;-73
2023/06/11 00:54:40;;;;;;;;;;;;;;;;;;5036946;28;19932;-73
2023/06/11 00:57:07;;;;;;;;;;;;;;;;;;5046109;28;20658;-74
2023/06/11 00:59:34;;;;;;;;;;;;;;;;;;5041064;28;19979;-73
2023/06/11 01:02:01;;;;;;;;;;;;;;;;;;5052317;28;19928;-72
2023/06/11 01:04:32;;;;;;;;;;;;;;;;;;5053279;28;20068;-72
2023/06/11 01:06:59;;;;;;;;;;;;;;;;;;5047145;28;19944;-73
2023/06/11 01:09:26;;;;;;;;;;;;;;;;;;5052282;28;19928;-72
2023/06/11 01:11:54;;;;;;;;;;;;;;;;;;5045722;28;20012;-72
2023/06/11 01:14:21;;;;;;;;;;;;;;;;;;5047033;28;19939;-73
2023/06/11 01:16:48;;;;;;;;;;;;;;;;;;5040282;28;20361;-73
2023/06/11 01:19:16;;;;;;;;;;;;;;;;;;5051810;28;19925;-73
2023/06/11 01:21:45;;;;;;;;;;;;;;;;;;5044025;28;19925;-73
2023/06/11 01:24:12;;;;;;;;;;;;;;;;;;5039357;28;19967;-73
2023/06/11 01:26:39;;;;;;;;;;;;;;;;;;5044630;28;20016;-72
2023/06/11 01:29:06;;;;;;;;;;;;;;;;;;5047370;28;20012;-73
2023/06/11 01:31:33;;;;;;;;;;;;;;;;;;5044435;28;19971;-72
2023/06/11 01:34:01;;;;;;;;;;;;;;;;;;5036590;28;20020;-73
2023/06/11 01:36:29;;;;;;;;;;;;;;;;;;5046415;28;20047;-73
2023/06/11 01:38:58;;;;;;;;;;;;;;;;;;5050237;28;19932;-72
2023/06/11 01:41:27;;;;;;;;;;;;;;;;;;5048154;28;19925;-72
2023/06/11 01:43:54;;;;;;;;;;;;;;;;;;5050410;28;19976;-73
2023/06/11 01:46:21;;;;;;;;;;;;;;;;;;5037080;28;19925;-73
2023/06/11 01:48:48;;;;;;;;;;;;;;;;;;5050770;28;19928;-73
2023/06/11 01:51:14;;;;;;;;;;;;;;;;;;5046664;28;20387;-73
2023/06/11 01:53:41;;;;;;;;;;;;;;;;;;5042411;28;20356;-73
2023/06/11 01:56:08;;;;;;;;;;;;;;;;;;5048056;28;20020;-73
2023/06/11 01:58:37;;;;;;;;;;;;;;;;;;5042537;28;20014;-73
2023/06/11 02:01:04;;;;;;;;;;;;;;;;;;5043343;28;19925;-72
2023/06/11 02:03:31;;;;;;;;;;;;;;;;;;5042436;28;19925;-72
2023/06/11 02:05:58;;;;;;;;;;;;;;;;;;5048298;28;20016;-72
2023/06/11 02:08:26;;;;;;;;;;;;;;;;;;5050705;28;20015;-72
2023/06/11 02:10:53;;;;;;;;;;;;;;;;;;5049715;28;19931;-71
2023/06/11 02:13:20;;;;;;;;;;;;;;;;;;5055631;28;19959;-72
2023/06/11 02:15:47;;;;;;;;;;;;;;;;;;5055487;28;20011;-72
2023/06/11 02:18:14;;;;;;;;;;;;;;;;;;5045712;28;20454;-72
2023/06/11 02:20:41;;;;;;;;;;;;;;;;;;5043896;28;19987;-72
2023/06/11 02:23:08;;;;;;;;;;;;;;;;;;5054817;28;20016;-72
2023/06/11 02:25:35;;;;;;;;;;;;;;;;;;5056192;28;20027;-73
2023/06/11 02:28:02;;;;;;;;;;;;;;;;;;5056078;28;20019;-70
2023/06/11 02:30:29;;;;;;;;;;;;;;;;;;5054776;28;19929;-70
2023/06/11 02:32:55;;;;;;;;;;;;;;;;;;5055629;28;20023;-70
2023/06/11 02:35:22;;;;;;;;;;;;;;;;;;5047976;28;20019;-70
2023/06/11 02:37:49;;;;;;;;;;;;;;;;;;5039338;28;20011;-70
2023/06/11 02:40:16;;;;;;;;;;;;;;;;;;5036340;28;20329;-70
2023/06/11 02:42:44;;;;;;;;;;;;;;;;;;5036245;28;20008;-70
2023/06/11 02:45:11;;;;;;;;;;;;;;;;;;5042171;28;19965;-71
2023/06/11 02:47:38;;;;;;;;;;;;;;;;;;5046590;28;19925;-71
2023/06/11 02:50:05;;;;;;;;;;;;;;;;;;5041030;28;20024;-71
2023/06/11 02:52:32;;;;;;;;;;;;;;;;;;5044321;28;19960;-71
2023/06/11 02:54:59;;;;;;;;;;;;;;;;;;5055962;28;20368;-71
2023/06/11 02:57:26;;;;;;;;;;;;;;;;;;5053967;28;19925;-71
2023/06/11 02:59:53;;;;;;;;;;;;;;;;;;5041568;28;19931;-71
2023/06/11 03:02:20;;;;;;;;;;;;;;;;;;5055508;28;19979;-71
2023/06/11 03:04:47;;;;;;;;;;;;;;;;;;5055309;28;20019;-71
2023/06/11 03:07:14;;;;;;;;;;;;;;;;;;5052700;28;20415;-71
2023/06/11 03:09:41;;;;;;;;;;;;;;;;;;5048685;28;19986;-71
2023/06/11 03:12:08;;;;;;;;;;;;;;;;;;5039725;28;19986;-71
2023/06/11 03:14:35;;;;;;;;;;;;;;;;;;5053700;28;19925;-70
2023/06/11 03:17:02;;;;;;;;;;;;;;;;;;5040033;28;19975;-71
2023/06/11 03:19:29;;;;;;;;;;;;;;;;;;5051817;28;20011;-71
2023/06/11 03:21:56;;;;;;;;;;;;;;;;;;5053896;28;19932;-71
2023/06/11 03:24:23;;;;;;;;;;;;;;;;;;5040643;28;20019;-70
2023/06/11 03:26:50;;;;;;;;;;;;;;;;;;5045824;28;20035;-70
2023/06/11 03:29:17;;;;;;;;;;;;;;;;;;5051866;28;20011;-70
2023/06/11 03:31:44;;;;;;;;;;;;;;;;;;5047116;28;20466;-71
2023/06/11 03:34:11;;;;;;;;;;;;;;;;;;5049302;28;19925;-69
2023/06/11 03:36:38;;;;;;;;;;;;;;;;;;5054962;28;19924;-69
2023/06/11 03:39:05;;;;;;;;;;;;;;;;;;5053894;28;19932;-69
2023/06/11 03:41:32;;;;;;;;;;;;;;;;;;5049396;28;20392;-69
2023/06/11 03:43:59;;;;;;;;;;;;;;;;;;5045735;28;20479;-69
2023/06/11 03:46:26;;;;;;;;;;;;;;;;;;5052117;28;20417;-70
2023/06/11 03:48:53;;;;;;;;;;;;;;;;;;5048692;28;19928;-70
2023/06/11 03:51:20;;;;;;;;;;;;;;;;;;5054468;28;19983;-70
2023/06/11 03:53:47;;;;;;;;;;;;;;;;;;5053720;28;20008;-69
2023/06/11 03:56:14;;;;;;;;;;;;;;;;;;5054684;28;19948;-70
2023/06/11 03:58:41;;;;;;;;;;;;;;;;;;5053401;28;19925;-70
2023/06/11 04:01:08;;;;;;;;;;;;;;;;;;5053550;28;19978;-70
2023/06/11 04:03:35;;;;;;;;;;;;;;;;;;5051084;28;19947;-70
2023/06/11 04:06:02;;;;;;;;;;;;;;;;;;5052555;28;20535;-70
2023/06/11 04:08:29;;;;;;;;;;;;;;;;;;5054781;28;19929;-70
2023/06/11 04:10:56;;;;;;;;;;;;;;;;;;5052352;28;19929;-69
2023/06/11 04:13:23;;;;;;;;;;;;;;;;;;5052019;28;19994;-70
2023/06/11 04:15:50;;;;;;;;;;;;;;;;;;5054182;28;19928;-69
2023/06/11 04:18:17;;;;;;;;;;;;;;;;;;5038878;28;19976;-69
2023/06/11 04:20:44;;;;;;;;;;;;;;;;;;5036310;28;20100;-70
2023/06/11 04:23:11;;;;;;;;;;;;;;;;;;5053326;28;21872;-69
2023/06/11 04:25:40;;;;;;;;;;;;;;;;;;5053117;28;21674;-70
2023/06/11 04:28:07;;;;;;;;;;;;;;;;;;5053209;28;20023;-69
2023/06/11 04:30:34;;;;;;;;;;;;;;;;;;5054147;28;20020;-69
2023/06/11 04:33:04;;;;;;;;;;;;;;;;;;5049181;28;19932;-69
2023/06/11 04:35:34;;;;;;;;;;;;;;;;;;5036677;28;19933;-70
2023/06/11 04:38:02;;;;;;;;;;;;;;;;;;5034133;28;20008;-70
2023/06/11 04:40:30;;;;;;;;;;;;;;;;;;5034251;28;19990;-70
2023/06/11 04:42:57;;;;;;;;;;;;;;;;;;5046864;28;19925;-69
2023/06/11 04:45:26;;;;;;;;;;;;;;;;;;5034116;28;20028;-69
2023/06/11 04:47:53;;;;;;;;;;;;;;;;;;5035046;28;20292;-70
2023/06/11 04:50:21;;;;;;;;;;;;;;;;;;5034224;28;20020;-70
2023/06/11 04:52:51;;;;;;;;;;;;;;;;;;5052543;28;19991;-70
2023/06/11 04:55:21;;;;;;;;;;;;;;;;;;5052721;28;19932;-71
2023/06/11 04:57:49;;;;;;;;;;;;;;;;;;5052044;28;19925;-70
2023/06/11 05:00:16;;;;;;;;;;;;;;;;;;5053302;28;19979;-71
2023/06/11 05:02:43;;;;;;;;;;;;;;;;;;5050215;28;19964;-71
2023/06/11 05:05:10;;;;;;;;;;;;;;;;;;5050684;28;19931;-70
2023/06/11 05:07:37;;;;;;;;;;;;;;;;;;5044723;28;19968;-69
2023/06/11 05:10:04;;;;;;;;;;;;;;;;;;5042493;28;20315;-71
2023/06/11 05:12:31;;;;;;;;;;;;;;;;;;5050628;28;20019;-70
2023/06/11 05:14:58;;;;;;;;;;;;;;;;;;5051938;28;19924;-70
2023/06/11 05:17:25;;;;;;;;;;;;;;;;;;5040669;28;20346;-70
2023/06/11 05:19:52;;;;;;;;;;;;;;;;;;5053260;28;19960;-70
2023/06/11 05:22:20;;;;;;;;;;;;;;;;;;5051970;28;19974;-71
2023/06/11 05:24:47;;;;;;;;;;;;;;;;;;5049279;28;19940;-71
2023/06/11 05:27:14;;;;;;;;;;;;;;;;;;5036663;28;19924;-70
2023/06/11 05:29:41;;;;;;;;;;;;;;;;;;5053187;28;20016;-70
2023/06/11 05:32:09;;;;;;;;;;;;;;;;;;5052750;28;19931;-70
2023/06/11 05:34:37;;;;;;;;;;;;;;;;;;5038232;28;19925;-70
2023/06/11 05:37:04;;;;;;;;;;;;;;;;;;5052610;28;20287;-70
2023/06/11 05:39:31;;;;;;;;;;;;;;;;;;5051445;28;19931;-69
2023/06/11 05:41:58;;;;;;;;;;;;;;;;;;5047910;28;19933;-69
2023/06/11 05:44:25;;;;;;;;;;;;;;;;;;5047360;28;20023;-69
2023/06/11 05:46:52;;;;;;;;;;;;;;;;;;5051959;28;19985;-69
2023/06/11 05:49:19;;;;;;;;;;;;;;;;;;5052007;28;19951;-68
2023/06/11 05:51:46;;;;;;;;;;;;;;;;;;5052274;28;19925;-68
2023/06/11 05:54:13;;;;;;;;;;;;;;;;;;5052089;28;20024;-69
2023/06/11 05:56:40;;;;;;;;;;;;;;;;;;5048532;28;19935;-69
2023/06/11 05:59:07;;;;;;;;;;;;;;;;;;5048060;28;19983;-67
2023/06/11 06:01:34;;;;;;;;;;;;;;;;;;5052056;28;19971;-68
2023/06/11 06:04:01;;;;;;;;;;;;;;;;;;5042180;28;19926;-68
2023/06/11 06:06:29;;;;;;;;;;;;;;;;;;5050782;28;20372;-68
2023/06/11 06:08:56;;;;;;;;;;;;;;;;;;5052265;28;19925;-68
2023/06/11 06:11:23;;;;;;;;;;;;;;;;;;5050911;28;19976;-69
2023/06/11 06:13:50;;;;;;;;;;;;;;;;;;5042161;28;20000;-68
2023/06/11 06:16:17;;;;;;;;;;;;;;;;;;5038804;28;20008;-69
2023/06/11 06:18:46;;;;;;;;;;;;;;;;;;5050614;28;20020;-69
2023/06/11 06:21:13;;;;;;;;;;;;;;;;;;5040035;28;19985;-70
2023/06/11 06:23:40;;;;;;;;;;;;;;;;;;5045332;28;19999;-70
2023/06/11 06:26:07;;;;;;;;;;;;;;;;;;5043646;28;19933;-70
2023/06/11 06:28:35;;;;;;;;;;;;;;;;;;5050028;28;20011;-70
2023/06/11 06:31:07;;;;;;;;;;;;;;;;;;5046672;28;19940;-70
2023/06/11 06:33:37;;;;;;;;;;;;;;;;;;5041416;28;20329;-70
2023/06/11 06:36:04;;;;;;;;;;;;;;;;;;5038385;28;19925;-70
2023/06/11 06:38:32;;;;;;;;;;;;;;;;;;5045558;28;20015;-69
2023/06/11 06:40:59;;;;;;;;;;;;;;;;;;5046140;28;19978;-70
2023/06/11 06:43:26;;;;;;;;;;;;;;;;;;5050845;28;19942;-70
2023/06/11 06:45:52;;;;;;;;;;;;;;;;;;5037431;28;20008;-70
2023/06/11 06:48:19;;;;;;;;;;;;;;;;;;5048825;28;19971;-70
2023/06/11 06:50:46;;;;;;;;;;;;;;;;;;5050317;28;20023;-71
2023/06/11 06:53:14;;;;;;;;;;;;;;;;;;5045449;28;20479;-71
2023/06/11 06:55:41;;;;;;;;;;;;;;;;;;5044554;28;19924;-70
2023/06/11 06:58:08;;;;;;;;;;;;;;;;;;5041182;28;19924;-70
2023/06/11 07:00:35;;;;;;;;;;;;;;;;;;5048789;28;19997;-70
2023/06/11 07:03:02;;;;;;;;;;;;;;;;;;5041772;28;20015;-69
2023/06/11 07:05:29;;;;;;;;;;;;;;;;;;5050156;28;20564;-70
2023/06/11 07:07:56;;;;;;;;;;;;;;;;;;5053085;28;19924;-70
2023/06/11 07:10:24;;;;;;;;;;;;;;;;;;5041997;28;19978;-69
2023/06/11 07:12:51;;;;;;;;;;;;;;;;;;5051410;28;20376;-70
2023/06/11 07:15:18;;;;;;;;;;;;;;;;;;5043591;28;20379;-70
2023/06/11 07:17:45;;;;;;;;;;;;;;;;;;5051614;28;19932;-71
2023/06/11 07:20:12;;;;;;;;;;;;;;;;;;5050048;28;19925;-71
2023/06/11 07:22:39;;;;;;;;;;;;;;;;;;5038157;28;19976;-71
2023/06/11 07:25:06;;;;;;;;;;;;;;;;;;5038241;28;20316;-70
2023/06/11 07:27:33;;;;;;;;;;;;;;;;;;5042638;28;19928;-71
2023/06/11 07:30:00;;;;;;;;;;;;;;;;;;5051315;28;19936;-71
2023/06/11 07:32:27;;;;;;;;;;;;;;;;;;5051162;28;19925;-71
2023/06/11 07:34:55;;;;;;;;;;;;;;;;;;5042229;28;19995;-71
2023/06/11 07:37:22;;;;;;;;;;;;;;;;;;5046681;28;20023;-71
2023/06/11 07:39:49;;;;;;;;;;;;;;;;;;5037935;28;20008;-71
2023/06/11 07:42:16;;;;;;;;;;;;;;;;;;5043189;28;19998;-71
2023/06/11 07:44:43;;;;;;;;;;;;;;;;;;5047140;28;20011;-71
2023/06/11 07:47:10;;;;;;;;;;;;;;;;;;5048648;28;19983;-70
2023/06/11 07:49:37;;;;;;;;;;;;;;;;;;5045970;28;20063;-71
2023/06/11 07:52:04;;;;;;;;;;;;;;;;;;5052787;28;20024;-71
2023/06/11 07:54:31;;;;;;;;;;;;;;;;;;5053843;28;20012;-70
2023/06/11 07:56:58;;;;;;;;;;;;;;;;;;5051574;28;19925;-72
2023/06/11 07:59:25;;;;;;;;;;;;;;;;;;5049525;28;19929;-71
2023/06/11 08:01:52;;;;;;;;;;;;;;;;;;5049860;28;20011;-71
2023/06/11 08:04:19;;;;;;;;;;;;;;;;;;5042889;28;19960;-70
2023/06/11 08:06:46;;;;;;;;;;;;;;;;;;5053541;28;19924;-72
2023/06/11 08:09:13;;;;;;;;;;;;;;;;;;5051537;28;20011;-71
2023/06/11 08:11:41;;;;;;;;;;;;;;;;;;5053770;28;20500;-71
2023/06/11 08:14:08;;;;;;;;;;;;;;;;;;5053572;28;20387;-71
2023/06/11 08:16:36;;;;;;;;;;;;;;;;;;5039217;28;19940;-71
2023/06/11 08:19:03;;;;;;;;;;;;;;;;;;5052831;28;20026;-71
2023/06/11 08:21:30;;;;;;;;;;;;;;;;;;5051851;28;19925;-71
2023/06/11 08:23:57;;;;;;;;;;;;;;;;;;5051106;28;19968;-70
2023/06/11 08:26:25;;;;;;;;;;;;;;;;;;5039884;28;19925;-71
2023/06/11 08:28:52;;;;;;;;;;;;;;;;;;5046804;28;19931;-72
2023/06/11 08:31:19;;;;;;;;;;;;;;;;;;5043686;28;19932;-71
2023/06/11 08:33:46;;;;;;;;;;;;;;;;;;5047771;28;20011;-70
2023/06/11 08:36:13;;;;;;;;;;;;;;;;;;5051537;28;19931;-72
2023/06/11 08:38:40;;;;;;;;;;;;;;;;;;5046947;28;20439;-71
2023/06/11 08:41:07;;;;;;;;;;;;;;;;;;5034892;28;19960;-71
2023/06/11 08:43:34;;;;;;;;;;;;;;;;;;5041826;28;20028;-71
2023/06/11 08:46:01;;;;;;;;;;;;;;;;;;5047824;28;19928;-71
2023/06/11 08:48:28;;;;;;;;;;;;;;;;;;5041735;28;20015;-70
2023/06/11 08:50:55;;;;;;;;;;;;;;;;;;5049910;28;20011;-69
2023/06/11 08:53:22;;;;;;;;;;;;;;;;;;5033674;28;19967;-72
2023/06/11 08:55:49;;;;;;;;;;;;;;;;;;5051307;28;19975;-71
2023/06/11 08:58:16;;;;;;;;;;;;;;;;;;5051098;28;19931;-72
2023/06/11 09:00:43;;;;;;;;;;;;;;;;;;5042527;28;19933;-72
2023/06/11 09:03:10;;;;;;;;;;;;;;;;;;5049582;28;19978;-72
2023/06/11 09:05:38;;;;;;;;;;;;;;;;;;5049237;28;19925;-72
2023/06/11 09:08:05;;;;;;;;;;;;;;;;;;5042013;28;20020;-71
2023/06/11 09:10:32;;;;;;;;;;;;;;;;;;5035461;28;20024;-72
2023/06/11 09:12:59;;;;;;;;;;;;;;;;;;5045993;28;19932;-71
2023/06/11 09:15:26;;;;;;;;;;;;;;;;;;5042922;28;19978;-71
2023/06/11 09:17:53;;;;;;;;;;;;;;;;;;5048147;28;19925;-74
2023/06/11 09:20:20;;;;;;;;;;;;;;;;;;5050535;28;19928;-70
2023/06/11 09:22:47;;;;;;;;;;;;;;;;;;5048216;28;20008;-69
2023/06/11 09:25:16;;;;;;;;;;;;;;;;;;5038107;28;19936;-70
2023/06/11 09:27:43;;;;;;;;;;;;;;;;;;5039058;28;19947;-70
2023/06/11 09:30:10;;;;;;;;;;;;;;;;;;5048133;28;19924;-70
2023/06/11 09:32:37;;;;;;;;;;;;;;;;;;5041985;28;19925;-70
2023/06/11 09:35:04;;;;;;;;;;;;;;;;;;5050897;28;19925;-71
2023/06/11 09:37:31;;;;;;;;;;;;;;;;;;5041828;28;20407;-72
2023/06/11 09:39:58;;;;;;;;;;;;;;;;;;5034930;28;20359;-72
2023/06/11 09:42:26;;;;;;;;;;;;;;;;;;5048540;28;19999;-72
2023/06/11 09:44:53;;;;;;;;;;;;;;;;;;5048714;28;19979;-72
2023/06/11 09:47:20;;;;;;;;;;;;;;;;;;5047767;28;20023;-72
2023/06/11 09:49:47;;;;;;;;;;;;;;;;;;5051729;28;19924;-72
2023/06/11 09:52:14;;;;;;;;;;;;;;;;;;5051777;28;19935;-72
2023/06/11 09:54:41;;;;;;;;;;;;;;;;;;5051461;28;19925;-72
2023/06/11 09:57:08;;;;;;;;;;;;;;;;;;5049975;28;20376;-71
2023/06/11 09:59:35;;;;;;;;;;;;;;;;;;5041436;28;20751;-72
2023/06/11 10:02:02;;;;;;;;;;;;;;;;;;5052171;28;19924;-71
2023/06/11 10:04:29;;;;;;;;;;;;;;;;;;5038572;28;19932;-72
2023/06/11 10:06:56;;;;;;;;;;;;;;;;;;5042076;28;20296;-72
2023/06/11 10:09:23;;;;;;;;;;;;;;;;;;5046196;28;19971;-72
2023/06/11 10:11:50;;;;;;;;;;;;;;;;;;5041677;28;19931;-72
2023/06/11 10:14:17;;;;;;;;;;;;;;;;;;5043597;28;19972;-72
2023/06/11 10:16:44;;;;;;;;;;;;;;;;;;5043831;28;20012;-71
2023/06/11 10:19:11;;;;;;;;;;;;;;;;;;5035601;28;19970;-72
2023/06/11 10:21:38;;;;;;;;;;;;;;;;;;5048035;28;19971;-72
2023/06/11 10:24:05;;;;;;;;;;;;;;;;;;5050000;28;20447;-72
2023/06/11 10:26:32;;;;;;;;;;;;;;;;;;5043469;28;20355;-72
2023/06/11 10:29:00;;;;;;;;;;;;;;;;;;5047348;28;20015;-72
2023/06/11 10:31:27;;;;;;;;;;;;;;;;;;5047346;28;19936;-73
2023/06/11 10:33:54;;;;;;;;;;;;;;;;;;5045346;28;20024;-70
2023/06/11 10:36:21;;;;;;;;;;;;;;;;;;5050708;28;20346;-70
2023/06/11 10:38:48;;;;;;;;;;;;;;;;;;5055613;28;19968;-71
2023/06/11 10:41:15;;;;;;;;;;;;;;;;;;5054314;28;20015;-72
2023/06/11 10:43:42;;;;;;;;;;;;;;;;;;5052834;28;19931;-71
2023/06/11 10:46:12;;;;;;;;;;;;;;;;;;5035770;28;19925;-71
2023/06/11 10:48:39;;;;;;;;;;;;;;;;;;5046030;28;19925;-71
2023/06/11 10:51:08;;;;;;;;;;;;;;;;;;5038256;28;19971;-72
2023/06/11 10:53:34;;;;;;;;;;;;;;;;;;5054951;28;20007;-72
2023/06/11 10:56:01;;;;;;;;;;;;;;;;;;5049468;28;20431;-71
2023/06/11 10:58:29;;;;;;;;;;;;;;;;;;5041430;28;20474;-71
2023/06/11 11:00:56;;;;;;;;;;;;;;;;;;5055201;28;20390;-71
2023/06/11 11:03:24;;;;;;;;;;;;;;;;;;5054263;28;20457;-71
2023/06/11 11:05:51;;;;;;;;;;;;;;;;;;5050224;28;19990;-71
2023/06/11 11:08:18;;;;;;;;;;;;;;;;;;5054059;28;20379;-71
2023/06/11 11:10:45;;;;;;;;;;;;;;;;;;5055403;28;19925;-72
2023/06/11 11:13:12;;;;;;;;;;;;;;;;;;5037789;28;20447;-71
2023/06/11 11:15:39;;;;;;;;;;;;;;;;;;5036095;28;19925;-71
2023/06/11 11:18:06;;;;;;;;;;;;;;;;;;5035482;28;19995;-71
2023/06/11 11:20:33;;;;;;;;;;;;;;;;;;5047791;28;19971;-71
2023/06/11 11:23:00;;;;;;;;;;;;;;;;;;5041935;28;19940;-71
2023/06/11 11:25:27;;;;;;;;;;;;;;;;;;5034917;28;19987;-71
2023/06/11 11:27:54;;;;;;;;;;;;;;;;;;5048739;28;19929;-72
2023/06/11 11:30:22;;;;;;;;;;;;;;;;;;5052889;28;19943;-72
2023/06/11 11:32:49;;;;;;;;;;;;;;;;;;5055119;28;20300;-71
2023/06/11 11:35:16;;;;;;;;;;;;;;;;;;5055083;28;20475;-71
2023/06/11 11:37:43;;;;;;;;;;;;;;;;;;5055077;28;20366;-71
2023/06/11 11:40:10;;;;;;;;;;;;;;;;;;5040951;28;20297;-72
2023/06/11 11:42:37;;;;;;;;;;;;;;;;;;5034933;28;19979;-71
2023/06/11 11:45:04;;;;;;;;;;;;;;;;;;5035450;28;20020;-71
2023/06/11 11:47:31;;;;;;;;;;;;;;;;;;5049115;28;19959;-70
2023/06/11 11:49:58;;;;;;;;;;;;;;;;;;5054364;28;20012;-71
2023/06/11 11:52:27;;;;;;;;;;;;;;;;;;5039136;28;20023;-70
2023/06/11 11:54:55;;;;;;;;;;;;;;;;;;5034988;28;19929;-71
2023/06/11 11:57:25;;;;;;;;;;;;;;;;;;5043746;28;19925;-71
2023/06/11 11:59:53;;;;;;;;;;;;;;;;;;5054675;28;19931;-70
2023/06/11 12:02:20;;;;;;;;;;;;;;;;;;5055102;28;19925;-71
2023/06/11 12:04:48;;;;;;;;;;;;;;;;;;5045308;28;19925;-71
2023/06/11 12:07:15;;;;;;;;;;;;;;;;;;5053828;28;19925;-70
2023/06/11 12:09:42;;;;;;;;;;;;;;;;;;5054052;28;19960;-70
2023/06/11 12:12:09;;;;;;;;;;;;;;;;;;5051759;28;19929;-72
2023/06/11 12:14:36;;;;;;;;;;;;;;;;;;5036961;28;19933;-71
2023/06/11 12:17:03;;;;;;;;;;;;;;;;;;5054339;28;19924;-70
2023/06/11 12:19:32;;;;;;;;;;;;;;;;;;5053642;28;20007;-70
2023/06/11 12:21:59;;;;;;;;;;;;;;;;;;5054877;28;19925;-70
2023/06/11 12:24:26;;;;;;;;;;;;;;;;;;5054703;28;20023;-71
2023/06/11 12:26:53;;;;;;;;;;;;;;;;;;5038862;28;19925;-71
2023/06/11 12:29:20;;;;;;;;;;;;;;;;;;5053296;28;20003;-71
2023/06/11 12:31:47;;;;;;;;;;;;;;;;;;5044811;28;20000;-71
2023/06/11 12:34:15;;;;;;;;;;;;;;;;;;5045182;28;19947;-70
2023/06/11 12:36:43;;;;;;;;;;;;;;;;;;5038421;28;20354;-71
2023/06/11 12:39:10;;;;;;;;;;;;;;;;;;5040623;28;19925;-71
2023/06/11 12:41:37;;;;;;;;;;;;;;;;;;5040643;28;20020;-71
2023/06/11 12:44:04;;;;;;;;;;;;;;;;;;5042101;28;20013;-71
2023/06/11 12:46:31;;;;;;;;;;;;;;;;;;5044019;28;19932;-71
2023/06/11 12:48:58;;;;;;;;;;;;;;;;;;5048764;28;19979;-70
2023/06/11 12:51:25;;;;;;;;;;;;;;;;;;5045442;28;20013;-71
2023/06/11 12:53:52;;;;;;;;;;;;;;;;;;5035100;28;20024;-71
2023/06/11 12:56:22;;;;;;;;;;;;;;;;;;5045081;28;19932;-71
2023/06/11 12:58:49;;;;;;;;;;;;;;;;;;5052206;28;20429;-71
2023/06/11 13:01:16;;;;;;;;;;;;;;;;;;5048380;28;19928;-71
2023/06/11 13:03:43;;;;;;;;;;;;;;;;;;5052232;28;20024;-70
2023/06/11 13:06:10;;;;;;;;;;;;;;;;;;5046325;28;20351;-69
2023/06/11 13:08:37;;;;;;;;;;;;;;;;;;5050145;28;20009;-70
2023/06/11 13:11:04;;;;;;;;;;;;;;;;;;5046004;28;20007;-70
2023/06/11 13:13:31;;;;;;;;;;;;;;;;;;5053355;28;19928;-70
2023/06/11 13:15:58;;;;;;;;;;;;;;;;;;5037185;28;19929;-70
2023/06/11 13:18:26;;;;;;;;;;;;;;;;;;5043519;28;20012;-72
2023/06/11 13:20:53;;;;;;;;;;;;;;;;;;5049993;28;20017;-71
2023/06/11 13:23:20;;;;;;;;;;;;;;;;;;5036168;28;19932;-71
2023/06/11 13:25:47;;;;;;;;;;;;;;;;;;5048796;28;20011;-72
2023/06/11 13:28:14;;;;;;;;;;;;;;;;;;5043219;28;19990;-72
2023/06/11 13:30:41;;;;;;;;;;;;;;;;;;5037508;28;19969;-72
2023/06/11 13:33:08;;;;;;;;;;;;;;;;;;5049666;28;19929;-71
2023/06/11 13:35:35;;;;;;;;;;;;;;;;;;5046860;28;19943;-71
2023/06/11 13:38:02;;;;;;;;;;;;;;;;;;5044100;28;19935;-71
2023/06/11 13:40:29;;;;;;;;;;;;;;;;;;5049907;28;19924;-72
2023/06/11 13:42:56;;;;;;;;;;;;;;;;;;5052851;28;19924;-72
2023/06/11 13:45:23;;;;;;;;;;;;;;;;;;5049708;28;20008;-71
2023/06/11 13:47:50;;;;;;;;;;;;;;;;;;5041969;28;19932;-71
2023/06/11 13:50:17;;;;;;;;;;;;;;;;;;5032997;28;20003;-71
2023/06/11 13:52:44;;;;;;;;;;;;;;;;;;5034290;28;19971;-72
2023/06/11 13:55:12;;;;;;;;;;;;;;;;;;5050186;28;20011;-71
2023/06/11 13:57:39;;;;;;;;;;;;;;;;;;5047107;28;19955;-71
2023/06/11 14:00:06;;;;;;;;;;;;;;;;;;5045304;28;20008;-72
2023/06/11 14:02:33;;;;;;;;;;;;;;;;;;5042797;28;19929;-72
2023/06/11 14:05:00;;;;;;;;;;;;;;;;;;5046203;28;20408;-71
2023/06/11 14:07:26;;;;;;;;;;;;;;;;;;5052006;28;19967;-72
2023/06/11 14:09:55;;;;;;;;;;;;;;;;;;5042840;28;19941;-71
2023/06/11 14:12:22;;;;;;;;;;;;;;;;;;5038708;28;19932;-72
2023/06/11 14:14:49;;;;;;;;;;;;;;;;;;5040826;28;19933;-72
2023/06/11 14:17:17;;;;;;;;;;;;;;;;;;5038672;28;19955;-71
2023/06/11 14:19:44;;;;;;;;;;;;;;;;;;5035176;28;19955;-71
2023/06/11 14:22:11;;;;;;;;;;;;;;;;;;5044970;28;19925;-72
2023/06/11 14:24:38;;;;;;;;;;;;;;;;;;5045384;28;20324;-71
2023/06/11 14:27:06;;;;;;;;;;;;;;;;;;5043282;28;19972;-72
2023/06/11 14:29:33;;;;;;;;;;;;;;;;;;5032535;28;19936;-71
2023/06/11 14:32:00;;;;;;;;;;;;;;;;;;5047353;28;20347;-71
2023/06/11 14:34:27;;;;;;;;;;;;;;;;;;5042273;28;20327;-71
2023/06/11 14:36:54;;;;;;;;;;;;;;;;;;5043343;28;20007;-72
2023/06/11 14:39:24;;;;;;;;;;;;;;;;;;5047789;28;19960;-71
2023/06/11 14:41:50;;;;;;;;;;;;;;;;;;5040400;28;19925;-71
2023/06/11 14:44:17;;;;;;;;;;;;;;;;;;5036987;28;19979;-72
2023/06/11 14:46:45;;;;;;;;;;;;;;;;;;5046557;28;20279;-73
2023/06/11 14:49:12;;;;;;;;;;;;;;;;;;5049078;28;19933;-72
2023/06/11 14:51:39;;;;;;;;;;;;;;;;;;5041592;28;20339;-72
2023/06/11 14:54:06;;;;;;;;;;;;;;;;;;5045947;28;20344;-72
2023/06/11 14:56:33;;;;;;;;;;;;;;;;;;5040382;28;20016;-72
2023/06/11 14:59:00;;;;;;;;;;;;;;;;;;5036235;28;19969;-72
2023/06/11 15:01:27;;;;;;;;;;;;;;;;;;5047424;28;20033;-72
2023/06/11 15:03:54;;;;;;;;;;;;;;;;;;5038644;28;20015;-72
2023/06/11 15:06:21;;;;;;;;;;;;;;;;;;5048932;28;20415;-72
2023/06/11 15:08:48;;;;;;;;;;;;;;;;;;5049655;28;19986;-72
2023/06/11 15:11:15;;;;;;;;;;;;;;;;;;5044597;28;19987;-72
2023/06/11 15:13:42;;;;;;;;;;;;;;;;;;5038523;28;19939;-72
2023/06/11 15:16:09;;;;;;;;;;;;;;;;;;5051805;28;19931;-73
2023/06/11 15:18:36;;;;;;;;;;;;;;;;;;5049682;28;20039;-73
2023/06/11 15:21:03;;;;;;;;;;;;;;;;;;5039581;28;20011;-73
2023/06/11 15:23:30;;;;;;;;;;;;;;;;;;5050513;28;20050;-73
2023/06/11 15:25:57;;;;;;;;;;;;;;;;;;5051071;28;20022;-73
2023/06/11 15:28:25;;;;;;;;;;;;;;;;;;5051908;28;20343;-72
2023/06/11 15:30:52;;;;;;;;;;;;;;;;;;5041691;28;20015;-73
2023/06/11 15:33:19;;;;;;;;;;;;;;;;;;5046501;28;19925;-73
2023/06/11 15:35:46;;;;;;;;;;;;;;;;;;5046704;28;20425;-73
2023/06/11 15:38:13;;;;;;;;;;;;;;;;;;5049997;28;19968;-73
2023/06/11 15:40:40;;;;;;;;;;;;;;;;;;5051031;28;20030;-72
2023/06/11 15:43:07;;;;;;;;;;;;;;;;;;5048507;28;20015;-72
2023/06/11 15:45:34;;;;;;;;;;;;;;;;;;5039835;28;20020;-72
2023/06/11 15:48:01;;;;;;;;;;;;;;;;;;5049316;28;19925;-72
2023/06/11 15:50:28;;;;;;;;;;;;;;;;;;5046705;28;20012;-72
2023/06/11 15:52:55;;;;;;;;;;;;;;;;;;5049738;28;20277;-73
2023/06/11 15:55:22;;;;;;;;;;;;;;;;;;5041465;28;20314;-73
2023/06/11 15:57:49;;;;;;;;;;;;;;;;;;5044509;28;19928;-73
2023/06/11 16:00:16;;;;;;;;;;;;;;;;;;5047611;28;20394;-72
2023/06/11 16:02:43;;;;;;;;;;;;;;;;;;5046810;28;19933;-72
2023/06/11 16:05:10;;;;;;;;;;;;;;;;;;5055394;28;20015;-72
2023/06/11 16:07:37;;;;;;;;;;;;;;;;;;5049311;28;19960;-72
2023/06/11 16:10:04;;;;;;;;;;;;;;;;;;5050404;28;20399;-73
2023/06/11 16:12:31;;;;;;;;;;;;;;;;;;5047426;28;19925;-72
2023/06/11 16:14:58;;;;;;;;;;;;;;;;;;5038359;28;20338;-72
2023/06/11 16:17:26;;;;;;;;;;;;;;;;;;5043797;28;19944;-72
2023/06/11 16:19:56;;;;;;;;;;;;;;;;;;5044615;28;19932;-72
2023/06/11 16:22:23;;;;;;;;;;;;;;;;;;5047134;28;19979;-72
2023/06/11 16:24:50;;;;;;;;;;;;;;;;;;5050785;28;19979;-73
2023/06/11 16:27:17;;;;;;;;;;;;;;;;;;5049675;28;20019;-72
2023/06/11 16:29:44;;;;;;;;;;;;;;;;;;5051222;28;20020;-73
2023/06/11 16:32:11;;;;;;;;;;;;;;;;;;5048865;28;20341;-72
2023/06/11 16:34:38;;;;;;;;;;;;;;;;;;5052053;28;19925;-72
2023/06/11 16:37:05;;;;;;;;;;;;;;;;;;5041554;28;20460;-72
2023/06/11 16:39:32;;;;;;;;;;;;;;;;;;5044757;28;20291;-71
2023/06/11 16:41:59;;;;;;;;;;;;;;;;;;5049991;28;20480;-71
2023/06/11 16:44:26;;;;;;;;;;;;;;;;;;5048863;28;19933;-72